sensor_id;sensor_type;location;lat;lon;timestamp;temperature;humidity
62555;DHT22;48610;52.144;8.624;2023-09-19T00:00:56;16.60;99.90
62555;DHT22;48610;52.144;8.624;2023-09-19T00:03:57;16.60;99.90
62555;DHT22;48610;52.144;8.624;2023-09-19T00:06:59;16.60;99.90
62555;DHT22;48610;52.144;8.624;2023-09-19T00:09:59;16.50;99.90
62555;DHT22;48610;52.144;8.624;2023-09-19T00:13:04;16.50;99.90
62555;DHT22;48610;52.144;8.624;2023-09-19T00:16:09;16.50;99.90
62555;DHT22;48610;52.144;8.624;2023-09-19T00:19:11;16.50;99.90
62555;DHT22;48610;52.144;8.624;2023-09-19T00:22:11;16.50;99.90
62555;DHT22;48610;52.144;8.624;2023-09-19T00:25:13;16.50;99.90
62555;DHT22;48610;52.144;8.624;2023-09-19T00:28:15;16.50;99.90
62555;DHT22;48610;52.144;8.624;2023-09-19T00:31:17;16.60;99.90
62555;DHT22;48610;52.144;8.624;2023-09-19T00:34:18;16.60;99.90
62555;DHT22;48610;52.144;8.624;2023-09-19T00:37:19;16.60;99.90
62555;DHT22;48610;52.144;8.624;2023-09-19T00:40:20;16.60;99.90
62555;DHT22;48610;52.144;8.624;2023-09-19T00:43:21;16.60;99.90
62555;DHT22;48610;52.144;8.624;2023-09-19T00:46:24;16.50;99.90
62555;DHT22;48610;52.144;8.624;2023-09-19T00:49:26;16.50;99.90
62555;DHT22;48610;52.144;8.624;2023-09-19T00:52:28;16.60;99.90
62555;DHT22;48610;52.144;8.624;2023-09-19T00:55:29;16.60;99.90
62555;DHT22;48610;52.144;8.624;2023-09-19T00:58:31;16.60;99.90
62555;DHT22;48610;52.144;8.624;2023-09-19T01:01:34;16.50;99.90
62555;DHT22;48610;52.144;8.624;2023-09-19T01:04:35;16.50;99.90
62555;DHT22;48610;52.144;8.624;2023-09-19T01:07:36;16.60;99.90
62555;DHT22;48610;52.144;8.624;2023-09-19T01:10:51;16.60;99.90
62555;DHT22;48610;52.144;8.624;2023-09-19T01:14:55;16.60;99.90
62555;DHT22;48610;52.144;8.624;2023-09-19T01:17:46;16.70;99.90
62555;DHT22;48610;52.144;8.624;2023-09-19T01:24:07;16.50;99.90
62555;DHT22;48610;52.144;8.624;2023-09-19T01:30:35;16.70;99.90
62555;DHT22;48610;52.144;8.624;2023-09-19T01:34:01;16.70;99.90
62555;DHT22;48610;52.144;8.624;2023-09-19T01:37:04;16.60;99.90
62555;DHT22;48610;52.144;8.624;2023-09-19T01:40:07;16.50;99.90
62555;DHT22;48610;52.144;8.624;2023-09-19T01:43:25;16.50;99.90
62555;DHT22;48610;52.144;8.624;2023-09-19T01:46:35;16.60;99.90
62555;DHT22;48610;52.144;8.624;2023-09-19T01:49:55;16.60;99.90
62555;DHT22;48610;52.144;8.624;2023-09-19T01:53:04;16.60;99.90
62555;DHT22;48610;52.144;8.624;2023-09-19T01:56:08;16.50;99.90
62555;DHT22;48610;52.144;8.624;2023-09-19T01:59:17;16.60;99.90
62555;DHT22;48610;52.144;8.624;2023-09-19T02:02:21;16.50;99.90
62555;DHT22;48610;52.144;8.624;2023-09-19T02:05:24;16.60;99.90
62555;DHT22;48610;52.144;8.624;2023-09-19T02:08:25;16.50;99.90
62555;DHT22;48610;52.144;8.624;2023-09-19T02:11:26;16.50;99.90
62555;DHT22;48610;52.144;8.624;2023-09-19T02:14:27;16.40;99.90
62555;DHT22;48610;52.144;8.624;2023-09-19T02:17:28;16.40;99.90
62555;DHT22;48610;52.144;8.624;2023-09-19T02:20:28;16.40;99.90
62555;DHT22;48610;52.144;8.624;2023-09-19T02:23:29;16.40;99.90
62555;DHT22;48610;52.144;8.624;2023-09-19T02:26:30;16.40;99.90
62555;DHT22;48610;52.144;8.624;2023-09-19T02:29:31;16.30;99.90
62555;DHT22;48610;52.144;8.624;2023-09-19T02:32:32;16.30;99.90
62555;DHT22;48610;52.144;8.624;2023-09-19T02:35:35;16.30;99.90
62555;DHT22;48610;52.144;8.624;2023-09-19T02:38:36;16.30;99.90
62555;DHT22;48610;52.144;8.624;2023-09-19T02:41:37;16.20;99.90
62555;DHT22;48610;52.144;8.624;2023-09-19T02:44:38;16.20;99.90
62555;DHT22;48610;52.144;8.624;2023-09-19T02:47:40;16.30;99.90
62555;DHT22;48610;52.144;8.624;2023-09-19T02:50:41;16.20;99.90
62555;DHT22;48610;52.144;8.624;2023-09-19T02:53:42;16.20;99.90
62555;DHT22;48610;52.144;8.624;2023-09-19T02:56:43;16.30;99.90
62555;DHT22;48610;52.144;8.624;2023-09-19T02:59:44;16.40;99.90
62555;DHT22;48610;52.144;8.624;2023-09-19T03:02:44;16.30;99.90
62555;DHT22;48610;52.144;8.624;2023-09-19T03:05:46;16.30;99.90
62555;DHT22;48610;52.144;8.624;2023-09-19T03:08:48;16.20;99.90
62555;DHT22;48610;52.144;8.624;2023-09-19T03:11:50;16.20;99.90
62555;DHT22;48610;52.144;8.624;2023-09-19T03:14:50;16.20;99.90
62555;DHT22;48610;52.144;8.624;2023-09-19T03:17:52;16.20;99.90
62555;DHT22;48610;52.144;8.624;2023-09-19T03:20:54;16.30;99.90
62555;DHT22;48610;52.144;8.624;2023-09-19T03:23:55;16.20;99.90
62555;DHT22;48610;52.144;8.624;2023-09-19T03:26:56;16.20;99.90
62555;DHT22;48610;52.144;8.624;2023-09-19T03:29:56;16.20;99.90
62555;DHT22;48610;52.144;8.624;2023-09-19T03:32:58;16.10;99.90
62555;DHT22;48610;52.144;8.624;2023-09-19T03:35:59;16.00;99.90
62555;DHT22;48610;52.144;8.624;2023-09-19T03:39:01;16.00;99.90
62555;DHT22;48610;52.144;8.624;2023-09-19T03:42:05;16.00;99.90
62555;DHT22;48610;52.144;8.624;2023-09-19T03:45:08;15.90;99.90
62555;DHT22;48610;52.144;8.624;2023-09-19T03:48:12;16.00;99.90
62555;DHT22;48610;52.144;8.624;2023-09-19T03:51:13;15.90;99.90
62555;DHT22;48610;52.144;8.624;2023-09-19T03:54:14;15.80;99.90
62555;DHT22;48610;52.144;8.624;2023-09-19T03:57:14;15.80;99.90
62555;DHT22;48610;52.144;8.624;2023-09-19T04:00:17;15.80;99.90
62555;DHT22;48610;52.144;8.624;2023-09-19T04:03:21;15.80;99.90
62555;DHT22;48610;52.144;8.624;2023-09-19T04:06:22;15.90;99.90
62555;DHT22;48610;52.144;8.624;2023-09-19T04:09:22;15.80;99.90
62555;DHT22;48610;52.144;8.624;2023-09-19T04:12:23;15.70;99.90
62555;DHT22;48610;52.144;8.624;2023-09-19T04:15:24;15.60;99.90
62555;DHT22;48610;52.144;8.624;2023-09-19T04:18:25;15.60;99.90
62555;DHT22;48610;52.144;8.624;2023-09-19T04:21:25;15.50;99.90
62555;DHT22;48610;52.144;8.624;2023-09-19T04:24:27;15.60;99.90
62555;DHT22;48610;52.144;8.624;2023-09-19T04:27:27;15.60;99.90
62555;DHT22;48610;52.144;8.624;2023-09-19T04:30:28;15.50;99.90
62555;DHT22;48610;52.144;8.624;2023-09-19T04:33:28;15.40;99.90
62555;DHT22;48610;52.144;8.624;2023-09-19T04:36:29;15.50;99.90
62555;DHT22;48610;52.144;8.624;2023-09-19T04:39:30;15.50;99.90
62555;DHT22;48610;52.144;8.624;2023-09-19T04:42:30;15.40;99.90
62555;DHT22;48610;52.144;8.624;2023-09-19T04:45:31;15.40;99.90
62555;DHT22;48610;52.144;8.624;2023-09-19T04:48:32;15.20;99.90
62555;DHT22;48610;52.144;8.624;2023-09-19T04:51:34;15.20;99.90
62555;DHT22;48610;52.144;8.624;2023-09-19T04:54:36;15.30;99.90
62555;DHT22;48610;52.144;8.624;2023-09-19T04:57:37;15.30;99.90
62555;DHT22;48610;52.144;8.624;2023-09-19T05:00:37;15.20;99.90
62555;DHT22;48610;52.144;8.624;2023-09-19T05:03:38;15.10;99.90
62555;DHT22;48610;52.144;8.624;2023-09-19T05:06:38;15.10;99.90
62555;DHT22;48610;52.144;8.624;2023-09-19T05:09:39;15.00;99.90
62555;DHT22;48610;52.144;8.624;2023-09-19T05:12:42;15.10;99.90
62555;DHT22;48610;52.144;8.624;2023-09-19T05:15:45;15.10;99.90
62555;DHT22;48610;52.144;8.624;2023-09-19T05:18:46;15.00;99.90
62555;DHT22;48610;52.144;8.624;2023-09-19T05:21:46;14.90;99.90
62555;DHT22;48610;52.144;8.624;2023-09-19T05:24:47;14.90;99.90
62555;DHT22;48610;52.144;8.624;2023-09-19T05:27:48;14.80;99.90
62555;DHT22;48610;52.144;8.624;2023-09-19T05:30:49;14.70;99.90
62555;DHT22;48610;52.144;8.624;2023-09-19T05:33:50;14.70;99.90
62555;DHT22;48610;52.144;8.624;2023-09-19T05:36:50;14.80;99.90
62555;DHT22;48610;52.144;8.624;2023-09-19T05:39:52;14.90;99.90
62555;DHT22;48610;52.144;8.624;2023-09-19T05:42:55;14.70;99.90
62555;DHT22;48610;52.144;8.624;2023-09-19T05:45:56;14.70;99.90
62555;DHT22;48610;52.144;8.624;2023-09-19T05:48:57;14.70;99.90
62555;DHT22;48610;52.144;8.624;2023-09-19T05:51:57;14.80;99.90
62555;DHT22;48610;52.144;8.624;2023-09-19T05:54:59;14.70;99.90
62555;DHT22;48610;52.144;8.624;2023-09-19T05:58:00;14.80;99.90
62555;DHT22;48610;52.144;8.624;2023-09-19T06:01:00;14.80;99.90
62555;DHT22;48610;52.144;8.624;2023-09-19T06:04:02;14.90;99.90
62555;DHT22;48610;52.144;8.624;2023-09-19T06:07:03;15.00;99.90
62555;DHT22;48610;52.144;8.624;2023-09-19T06:10:04;14.90;99.90
62555;DHT22;48610;52.144;8.624;2023-09-19T06:13:08;14.90;99.90
62555;DHT22;48610;52.144;8.624;2023-09-19T06:16:10;14.90;99.90
62555;DHT22;48610;52.144;8.624;2023-09-19T06:19:11;14.90;99.90
62555;DHT22;48610;52.144;8.624;2023-09-19T06:22:15;14.90;99.90
62555;DHT22;48610;52.144;8.624;2023-09-19T06:25:19;14.80;99.90
62555;DHT22;48610;52.144;8.624;2023-09-19T06:28:19;14.90;99.90
62555;DHT22;48610;52.144;8.624;2023-09-19T06:31:25;15.00;99.90
62555;DHT22;48610;52.144;8.624;2023-09-19T06:34:26;14.90;99.90
62555;DHT22;48610;52.144;8.624;2023-09-19T06:37:30;15.00;99.90
62555;DHT22;48610;52.144;8.624;2023-09-19T06:40:31;15.10;99.90
62555;DHT22;48610;52.144;8.624;2023-09-19T06:43:31;15.20;99.90
62555;DHT22;48610;52.144;8.624;2023-09-19T06:46:34;15.30;99.90
62555;DHT22;48610;52.144;8.624;2023-09-19T06:49:35;15.30;99.90
62555;DHT22;48610;52.144;8.624;2023-09-19T06:52:36;15.50;99.90
62555;DHT22;48610;52.144;8.624;2023-09-19T06:55:37;15.50;99.90
62555;DHT22;48610;52.144;8.624;2023-09-19T06:58:37;15.70;99.90
62555;DHT22;48610;52.144;8.624;2023-09-19T07:01:38;15.50;99.90
62555;DHT22;48610;52.144;8.624;2023-09-19T07:04:40;15.40;99.90
62555;DHT22;48610;52.144;8.624;2023-09-19T07:07:41;15.30;99.90
62555;DHT22;48610;52.144;8.624;2023-09-19T07:10:42;15.30;99.90
62555;DHT22;48610;52.144;8.624;2023-09-19T07:13:48;15.30;99.90
62555;DHT22;48610;52.144;8.624;2023-09-19T07:16:49;15.40;99.90
62555;DHT22;48610;52.144;8.624;2023-09-19T07:19:50;15.50;99.90
62555;DHT22;48610;52.144;8.624;2023-09-19T07:22:50;15.50;99.90
62555;DHT22;48610;52.144;8.624;2023-09-19T07:25:51;15.40;99.90
62555;DHT22;48610;52.144;8.624;2023-09-19T07:28:52;15.40;99.90
62555;DHT22;48610;52.144;8.624;2023-09-19T07:31:53;15.40;99.90
62555;DHT22;48610;52.144;8.624;2023-09-19T07:34:54;15.50;99.90
62555;DHT22;48610;52.144;8.624;2023-09-19T07:37:55;15.60;99.90
62555;DHT22;48610;52.144;8.624;2023-09-19T07:41:00;15.70;99.90
62555;DHT22;48610;52.144;8.624;2023-09-19T07:44:02;15.80;99.90
62555;DHT22;48610;52.144;8.624;2023-09-19T07:47:03;15.60;99.90
62555;DHT22;48610;52.144;8.624;2023-09-19T07:50:04;15.70;99.90
62555;DHT22;48610;52.144;8.624;2023-09-19T07:53:05;15.90;99.90
62555;DHT22;48610;52.144;8.624;2023-09-19T07:56:06;16.00;99.90
62555;DHT22;48610;52.144;8.624;2023-09-19T07:59:07;16.10;99.90
62555;DHT22;48610;52.144;8.624;2023-09-19T08:02:10;16.20;99.90
62555;DHT22;48610;52.144;8.624;2023-09-19T08:05:15;16.30;99.90
62555;DHT22;48610;52.144;8.624;2023-09-19T08:08:17;16.20;99.90
62555;DHT22;48610;52.144;8.624;2023-09-19T08:11:18;16.10;99.90
62555;DHT22;48610;52.144;8.624;2023-09-19T08:14:21;16.10;99.90
62555;DHT22;48610;52.144;8.624;2023-09-19T08:17:25;16.20;99.90
62555;DHT22;48610;52.144;8.624;2023-09-19T08:20:25;16.20;99.90
62555;DHT22;48610;52.144;8.624;2023-09-19T08:23:26;16.20;99.90
62555;DHT22;48610;52.144;8.624;2023-09-19T08:26:31;16.10;99.90
62555;DHT22;48610;52.144;8.624;2023-09-19T08:29:33;16.10;99.90
62555;DHT22;48610;52.144;8.624;2023-09-19T08:32:35;16.20;99.90
62555;DHT22;48610;52.144;8.624;2023-09-19T08:35:36;16.40;99.90
62555;DHT22;48610;52.144;8.624;2023-09-19T08:38:38;16.30;99.90
62555;DHT22;48610;52.144;8.624;2023-09-19T08:41:39;16.30;99.90
62555;DHT22;48610;52.144;8.624;2023-09-19T08:44:40;16.30;99.90
62555;DHT22;48610;52.144;8.624;2023-09-19T08:47:46;16.40;99.90
62555;DHT22;48610;52.144;8.624;2023-09-19T08:50:57;16.50;99.90
62555;DHT22;48610;52.144;8.624;2023-09-19T08:54:07;16.60;99.90
62555;DHT22;48610;52.144;8.624;2023-09-19T08:57:08;16.60;99.90
62555;DHT22;48610;52.144;8.624;2023-09-19T09:00:12;16.70;99.90
62555;DHT22;48610;52.144;8.624;2023-09-19T09:03:16;16.70;99.90
62555;DHT22;48610;52.144;8.624;2023-09-19T09:06:21;16.70;99.90
62555;DHT22;48610;52.144;8.624;2023-09-19T09:09:21;16.70;99.90
62555;DHT22;48610;52.144;8.624;2023-09-19T09:12:22;16.60;99.90
62555;DHT22;48610;52.144;8.624;2023-09-19T09:15:23;16.80;99.90
62555;DHT22;48610;52.144;8.624;2023-09-19T09:18:24;16.90;99.90
62555;DHT22;48610;52.144;8.624;2023-09-19T09:21:25;17.10;99.90
62555;DHT22;48610;52.144;8.624;2023-09-19T09:24:30;17.10;99.90
62555;DHT22;48610;52.144;8.624;2023-09-19T09:27:31;16.90;99.90
62555;DHT22;48610;52.144;8.624;2023-09-19T09:30:37;16.90;99.90
62555;DHT22;48610;52.144;8.624;2023-09-19T09:33:38;16.80;99.90
62555;DHT22;48610;52.144;8.624;2023-09-19T09:36:40;16.90;99.90
62555;DHT22;48610;52.144;8.624;2023-09-19T09:39:54;17.00;99.90
62555;DHT22;48610;52.144;8.624;2023-09-19T09:42:56;17.10;99.90
62555;DHT22;48610;52.144;8.624;2023-09-19T09:46:10;17.20;99.90
62555;DHT22;48610;52.144;8.624;2023-09-19T09:49:24;17.20;99.90
62555;DHT22;48610;52.144;8.624;2023-09-19T09:52:45;17.30;99.90
62555;DHT22;48610;52.144;8.624;2023-09-19T09:56:08;17.20;99.90
62555;DHT22;48610;52.144;8.624;2023-09-19T09:59:10;17.50;99.90
62555;DHT22;48610;52.144;8.624;2023-09-19T10:02:20;17.40;99.90
62555;DHT22;48610;52.144;8.624;2023-09-19T10:05:24;17.70;99.90
62555;DHT22;48610;52.144;8.624;2023-09-19T10:08:28;18.00;99.90
62555;DHT22;48610;52.144;8.624;2023-09-19T10:11:31;18.20;99.90
62555;DHT22;48610;52.144;8.624;2023-09-19T10:14:35;18.30;99.90
62555;DHT22;48610;52.144;8.624;2023-09-19T10:17:42;18.30;99.90
62555;DHT22;48610;52.144;8.624;2023-09-19T10:20:47;18.30;99.90
62555;DHT22;48610;52.144;8.624;2023-09-19T10:23:51;18.30;99.90
62555;DHT22;48610;52.144;8.624;2023-09-19T10:26:57;18.40;99.90
62555;DHT22;48610;52.144;8.624;2023-09-19T10:29:58;18.50;99.90
62555;DHT22;48610;52.144;8.624;2023-09-19T10:33:04;18.80;99.90
62555;DHT22;48610;52.144;8.624;2023-09-19T10:36:06;18.50;99.90
62555;DHT22;48610;52.144;8.624;2023-09-19T10:39:08;18.10;99.90
62555;DHT22;48610;52.144;8.624;2023-09-19T10:42:11;18.00;99.90
62555;DHT22;48610;52.144;8.624;2023-09-19T10:45:17;18.20;99.90
62555;DHT22;48610;52.144;8.624;2023-09-19T10:48:20;18.00;99.90
62555;DHT22;48610;52.144;8.624;2023-09-19T10:51:29;18.10;99.90
62555;DHT22;48610;52.144;8.624;2023-09-19T10:54:34;18.10;99.90
62555;DHT22;48610;52.144;8.624;2023-09-19T10:57:37;18.30;99.90
62555;DHT22;48610;52.144;8.624;2023-09-19T11:00:55;18.10;99.90
62555;DHT22;48610;52.144;8.624;2023-09-19T11:07:24;18.00;99.90
62555;DHT22;48610;52.144;8.624;2023-09-19T11:10:45;18.40;99.90
62555;DHT22;48610;52.144;8.624;2023-09-19T11:20:22;18.80;99.90
62555;DHT22;48610;52.144;8.624;2023-09-19T11:23:23;18.70;99.90
62555;DHT22;48610;52.144;8.624;2023-09-19T11:26:41;19.30;99.90
62555;DHT22;48610;52.144;8.624;2023-09-19T11:29:47;19.20;99.90
62555;DHT22;48610;52.144;8.624;2023-09-19T11:33:18;18.80;99.90
62555;DHT22;48610;52.144;8.624;2023-09-19T11:36:35;18.80;99.90
62555;DHT22;48610;52.144;8.624;2023-09-19T11:39:37;18.80;99.90
62555;DHT22;48610;52.144;8.624;2023-09-19T11:42:42;19.20;99.90
62555;DHT22;48610;52.144;8.624;2023-09-19T11:48:47;19.30;99.90
62555;DHT22;48610;52.144;8.624;2023-09-19T11:51:52;19.30;99.90
62555;DHT22;48610;52.144;8.624;2023-09-19T11:54:55;19.20;99.90
62555;DHT22;48610;52.144;8.624;2023-09-19T11:57:57;19.10;99.90
62555;DHT22;48610;52.144;8.624;2023-09-19T12:01:00;18.90;99.90
62555;DHT22;48610;52.144;8.624;2023-09-19T12:04:03;18.80;99.90
62555;DHT22;48610;52.144;8.624;2023-09-19T12:07:08;19.00;99.90
62555;DHT22;48610;52.144;8.624;2023-09-19T12:10:15;18.90;99.90
62555;DHT22;48610;52.144;8.624;2023-09-19T12:13:21;18.90;99.90
62555;DHT22;48610;52.144;8.624;2023-09-19T12:16:22;18.70;99.90
62555;DHT22;48610;52.144;8.624;2023-09-19T12:19:23;18.70;99.90
62555;DHT22;48610;52.144;8.624;2023-09-19T12:22:24;18.80;99.90
62555;DHT22;48610;52.144;8.624;2023-09-19T12:25:25;18.80;99.90
62555;DHT22;48610;52.144;8.624;2023-09-19T12:28:27;18.70;99.90
62555;DHT22;48610;52.144;8.624;2023-09-19T12:31:35;18.90;99.90
62555;DHT22;48610;52.144;8.624;2023-09-19T12:34:37;19.10;99.90
62555;DHT22;48610;52.144;8.624;2023-09-19T12:37:44;19.30;99.90
62555;DHT22;48610;52.144;8.624;2023-09-19T12:40:53;19.30;99.90
62555;DHT22;48610;52.144;8.624;2023-09-19T12:43:55;19.30;99.90
62555;DHT22;48610;52.144;8.624;2023-09-19T12:46:56;19.60;99.90
62555;DHT22;48610;52.144;8.624;2023-09-19T12:50:15;19.60;99.90
62555;DHT22;48610;52.144;8.624;2023-09-19T12:53:27;19.90;99.90
62555;DHT22;48610;52.144;8.624;2023-09-19T12:56:39;19.70;99.90
62555;DHT22;48610;52.144;8.624;2023-09-19T12:59:44;19.90;99.90
62555;DHT22;48610;52.144;8.624;2023-09-19T13:06:35;20.40;99.90
62555;DHT22;48610;52.144;8.624;2023-09-19T13:09:39;20.70;99.90
62555;DHT22;48610;52.144;8.624;2023-09-19T13:12:39;20.20;99.40
62555;DHT22;48610;52.144;8.624;2023-09-19T13:15:52;20.30;99.20
62555;DHT22;48610;52.144;8.624;2023-09-19T13:18:54;20.00;99.30
62555;DHT22;48610;52.144;8.624;2023-09-19T13:21:57;20.10;99.90
62555;DHT22;48610;52.144;8.624;2023-09-19T13:24:58;20.10;98.50
62555;DHT22;48610;52.144;8.624;2023-09-19T13:27:59;20.20;99.90
62555;DHT22;48610;52.144;8.624;2023-09-19T13:31:01;20.20;99.10
62555;DHT22;48610;52.144;8.624;2023-09-19T13:34:02;20.00;99.70
62555;DHT22;48610;52.144;8.624;2023-09-19T13:37:03;19.70;99.90
62555;DHT22;48610;52.144;8.624;2023-09-19T13:40:05;19.60;99.70
62555;DHT22;48610;52.144;8.624;2023-09-19T13:43:06;19.60;99.90
62555;DHT22;48610;52.144;8.624;2023-09-19T13:46:07;19.60;99.90
62555;DHT22;48610;52.144;8.624;2023-09-19T13:49:16;19.60;99.90
62555;DHT22;48610;52.144;8.624;2023-09-19T13:52:21;19.60;99.90
62555;DHT22;48610;52.144;8.624;2023-09-19T13:55:23;19.60;99.50
62555;DHT22;48610;52.144;8.624;2023-09-19T13:58:25;19.50;99.90
62555;DHT22;48610;52.144;8.624;2023-09-19T14:01:27;19.90;99.20
62555;DHT22;48610;52.144;8.624;2023-09-19T14:04:28;20.00;98.80
62555;DHT22;48610;52.144;8.624;2023-09-19T14:07:29;19.70;99.30
62555;DHT22;48610;52.144;8.624;2023-09-19T14:10:30;19.50;99.90
62555;DHT22;48610;52.144;8.624;2023-09-19T14:13:31;19.30;99.90
62555;DHT22;48610;52.144;8.624;2023-09-19T14:16:32;19.40;99.90
62555;DHT22;48610;52.144;8.624;2023-09-19T14:19:33;19.60;99.90
62555;DHT22;48610;52.144;8.624;2023-09-19T14:22:35;19.70;99.90
62555;DHT22;48610;52.144;8.624;2023-09-19T14:25:37;19.90;99.90
62555;DHT22;48610;52.144;8.624;2023-09-19T14:28:39;19.80;99.50
62555;DHT22;48610;52.144;8.624;2023-09-19T14:31:39;19.70;99.90
62555;DHT22;48610;52.144;8.624;2023-09-19T14:34:40;19.50;99.70
62555;DHT22;48610;52.144;8.624;2023-09-19T14:37:43;19.90;99.90
62555;DHT22;48610;52.144;8.624;2023-09-19T14:40:44;20.00;99.20
62555;DHT22;48610;52.144;8.624;2023-09-19T14:43:44;20.20;99.90
62555;DHT22;48610;52.144;8.624;2023-09-19T14:46:45;20.40;99.30
62555;DHT22;48610;52.144;8.624;2023-09-19T14:49:46;20.40;99.30
62555;DHT22;48610;52.144;8.624;2023-09-19T14:52:46;20.40;98.80
62555;DHT22;48610;52.144;8.624;2023-09-19T14:55:47;20.40;99.10
62555;DHT22;48610;52.144;8.624;2023-09-19T14:58:52;20.50;99.90
62555;DHT22;48610;52.144;8.624;2023-09-19T15:01:52;20.40;99.60
62555;DHT22;48610;52.144;8.624;2023-09-19T15:04:53;20.30;99.30
62555;DHT22;48610;52.144;8.624;2023-09-19T15:07:54;20.00;99.10
62555;DHT22;48610;52.144;8.624;2023-09-19T15:10:55;19.70;99.80
62555;DHT22;48610;52.144;8.624;2023-09-19T15:13:58;19.60;99.90
62555;DHT22;48610;52.144;8.624;2023-09-19T15:16:59;19.50;99.90
62555;DHT22;48610;52.144;8.624;2023-09-19T15:20:00;19.50;99.90
62555;DHT22;48610;52.144;8.624;2023-09-19T15:23:06;19.40;99.90
62555;DHT22;48610;52.144;8.624;2023-09-19T15:26:09;19.50;99.90
62555;DHT22;48610;52.144;8.624;2023-09-19T15:29:10;19.40;99.90
62555;DHT22;48610;52.144;8.624;2023-09-19T15:32:10;19.30;99.90
62555;DHT22;48610;52.144;8.624;2023-09-19T15:35:11;19.40;99.90
62555;DHT22;48610;52.144;8.624;2023-09-19T15:38:14;19.60;98.40
62555;DHT22;48610;52.144;8.624;2023-09-19T15:41:14;19.50;99.20
62555;DHT22;48610;52.144;8.624;2023-09-19T15:44:16;19.50;98.20
62555;DHT22;48610;52.144;8.624;2023-09-19T15:47:17;19.50;98.40
62555;DHT22;48610;52.144;8.624;2023-09-19T15:50:20;19.40;98.50
62555;DHT22;48610;52.144;8.624;2023-09-19T15:53:22;19.40;98.50
62555;DHT22;48610;52.144;8.624;2023-09-19T15:56:23;19.50;99.10
62555;DHT22;48610;52.144;8.624;2023-09-19T15:59:24;19.30;99.90
62555;DHT22;48610;52.144;8.624;2023-09-19T16:02:25;19.40;99.60
62555;DHT22;48610;52.144;8.624;2023-09-19T16:05:27;19.30;99.00
62555;DHT22;48610;52.144;8.624;2023-09-19T16:08:28;19.20;99.50
62555;DHT22;48610;52.144;8.624;2023-09-19T16:11:29;19.20;99.50
62555;DHT22;48610;52.144;8.624;2023-09-19T16:14:30;19.20;99.40
62555;DHT22;48610;52.144;8.624;2023-09-19T16:17:31;19.20;99.50
62555;DHT22;48610;52.144;8.624;2023-09-19T16:20:31;19.10;99.70
62555;DHT22;48610;52.144;8.624;2023-09-19T16:23:34;19.30;99.50
62555;DHT22;48610;52.144;8.624;2023-09-19T16:26:35;19.30;99.80
62555;DHT22;48610;52.144;8.624;2023-09-19T16:29:36;19.10;99.70
62555;DHT22;48610;52.144;8.624;2023-09-19T16:32:36;19.10;99.90
62555;DHT22;48610;52.144;8.624;2023-09-19T16:35:37;19.10;99.90
62555;DHT22;48610;52.144;8.624;2023-09-19T16:38:40;19.00;99.90
62555;DHT22;48610;52.144;8.624;2023-09-19T16:41:41;19.00;99.90
62555;DHT22;48610;52.144;8.624;2023-09-19T16:44:42;18.90;99.90
62555;DHT22;48610;52.144;8.624;2023-09-19T16:47:44;18.90;99.90
62555;DHT22;48610;52.144;8.624;2023-09-19T16:50:44;18.80;99.90
62555;DHT22;48610;52.144;8.624;2023-09-19T16:53:45;18.70;99.90
62555;DHT22;48610;52.144;8.624;2023-09-19T16:56:46;18.70;99.90
62555;DHT22;48610;52.144;8.624;2023-09-19T16:59:46;18.80;99.90
62555;DHT22;48610;52.144;8.624;2023-09-19T17:02:47;18.80;99.90
62555;DHT22;48610;52.144;8.624;2023-09-19T17:05:48;18.80;99.90
62555;DHT22;48610;52.144;8.624;2023-09-19T17:08:49;18.70;99.90
62555;DHT22;48610;52.144;8.624;2023-09-19T17:11:50;18.70;99.90
62555;DHT22;48610;52.144;8.624;2023-09-19T17:14:51;18.80;99.90
62555;DHT22;48610;52.144;8.624;2023-09-19T17:17:53;18.70;99.90
62555;DHT22;48610;52.144;8.624;2023-09-19T17:20:54;18.70;99.90
62555;DHT22;48610;52.144;8.624;2023-09-19T17:23:55;18.70;99.90
62555;DHT22;48610;52.144;8.624;2023-09-19T17:26:58;18.70;99.90
62555;DHT22;48610;52.144;8.624;2023-09-19T17:30:00;18.60;99.90
62555;DHT22;48610;52.144;8.624;2023-09-19T17:33:01;18.70;99.90
62555;DHT22;48610;52.144;8.624;2023-09-19T17:36:09;18.70;99.90
62555;DHT22;48610;52.144;8.624;2023-09-19T17:39:16;18.70;99.90
62555;DHT22;48610;52.144;8.624;2023-09-19T17:42:17;18.70;99.90
62555;DHT22;48610;52.144;8.624;2023-09-19T17:45:18;18.80;99.90
62555;DHT22;48610;52.144;8.624;2023-09-19T17:48:19;18.80;99.90
62555;DHT22;48610;52.144;8.624;2023-09-19T17:51:20;18.70;99.90
62555;DHT22;48610;52.144;8.624;2023-09-19T17:54:20;18.60;99.90
62555;DHT22;48610;52.144;8.624;2023-09-19T17:57:21;18.70;99.90
62555;DHT22;48610;52.144;8.624;2023-09-19T18:00:22;18.70;99.90
62555;DHT22;48610;52.144;8.624;2023-09-19T18:03:23;18.70;99.90
62555;DHT22;48610;52.144;8.624;2023-09-19T18:06:27;18.70;99.90
62555;DHT22;48610;52.144;8.624;2023-09-19T18:09:28;18.70;99.90
62555;DHT22;48610;52.144;8.624;2023-09-19T18:12:29;18.70;99.90
62555;DHT22;48610;52.144;8.624;2023-09-19T18:15:30;18.70;99.90
62555;DHT22;48610;52.144;8.624;2023-09-19T18:18:33;18.70;99.90
62555;DHT22;48610;52.144;8.624;2023-09-19T18:21:34;18.70;99.90
62555;DHT22;48610;52.144;8.624;2023-09-19T18:24:35;18.60;99.90
62555;DHT22;48610;52.144;8.624;2023-09-19T18:27:36;18.60;99.90
62555;DHT22;48610;52.144;8.624;2023-09-19T18:30:38;18.60;99.90
62555;DHT22;48610;52.144;8.624;2023-09-19T18:33:39;18.50;99.90
62555;DHT22;48610;52.144;8.624;2023-09-19T18:36:40;18.60;99.90
62555;DHT22;48610;52.144;8.624;2023-09-19T18:39:41;18.70;99.90
62555;DHT22;48610;52.144;8.624;2023-09-19T18:42:42;18.60;99.90
62555;DHT22;48610;52.144;8.624;2023-09-19T18:45:42;18.60;99.90
62555;DHT22;48610;52.144;8.624;2023-09-19T18:48:44;18.60;99.90
62555;DHT22;48610;52.144;8.624;2023-09-19T18:51:46;18.50;99.90
62555;DHT22;48610;52.144;8.624;2023-09-19T18:54:51;18.50;99.90
62555;DHT22;48610;52.144;8.624;2023-09-19T18:57:51;18.60;99.90
62555;DHT22;48610;52.144;8.624;2023-09-19T19:00:52;18.50;99.90
62555;DHT22;48610;52.144;8.624;2023-09-19T19:03:54;18.50;99.90
62555;DHT22;48610;52.144;8.624;2023-09-19T19:06:55;18.50;99.90
62555;DHT22;48610;52.144;8.624;2023-09-19T19:09:55;18.50;99.90
62555;DHT22;48610;52.144;8.624;2023-09-19T19:12:56;18.50;99.90
62555;DHT22;48610;52.144;8.624;2023-09-19T19:15:58;18.50;99.90
62555;DHT22;48610;52.144;8.624;2023-09-19T19:19:02;18.50;99.90
62555;DHT22;48610;52.144;8.624;2023-09-19T19:22:02;18.40;99.90
62555;DHT22;48610;52.144;8.624;2023-09-19T19:25:04;18.50;99.90
62555;DHT22;48610;52.144;8.624;2023-09-19T19:28:05;18.50;99.90
62555;DHT22;48610;52.144;8.624;2023-09-19T19:31:06;18.40;99.90
62555;DHT22;48610;52.144;8.624;2023-09-19T19:34:09;18.40;99.90
62555;DHT22;48610;52.144;8.624;2023-09-19T19:37:09;18.40;99.90